sensor_id;sensor_type;location;lat;lon;timestamp;pressure;altitude;pressure_sealevel;temperature;humidity
72210;BME280;60113;48.762;12.302;2022-12-18T00:02:09;98492.13;;;-7.43;96.54
72210;BME280;60113;48.762;12.302;2022-12-18T00:04:37;98489.53;;;-7.44;96.19
72210;BME280;60113;48.762;12.302;2022-12-18T00:07:03;98485.25;;;-7.45;96.10
72210;BME280;60113;48.762;12.302;2022-12-18T00:09:28;98477.56;;;-7.47;96.54
72210;BME280;60113;48.762;12.302;2022-12-18T00:11:54;98477.56;;;-7.47;96.26
72210;BME280;60113;48.762;12.302;2022-12-18T00:14:19;98478.44;;;-7.45;96.49
72210;BME280;60113;48.762;12.302;2022-12-18T00:16:46;98475.91;;;-7.45;96.48
72210;BME280;60113;48.762;12.302;2022-12-18T00:19:13;98475.91;;;-7.43;96.51
72210;BME280;60113;48.762;12.302;2022-12-18T00:21:39;98475.06;;;-7.42;96.47
72210;BME280;60113;48.762;12.302;2022-12-18T00:24:05;98466.59;;;-7.41;95.87
72210;BME280;60113;48.762;12.302;2022-12-18T00:26:32;98479.38;;;-7.41;96.13
72210;BME280;60113;48.762;12.302;2022-12-18T00:29:03;98474.25;;;-7.41;96.14
72210;BME280;60113;48.762;12.302;2022-12-18T00:31:29;98466.63;;;-7.39;96.81
72210;BME280;60113;48.762;12.302;2022-12-18T00:33:55;98469.16;;;-7.41;97.71
72210;BME280;60113;48.762;12.302;2022-12-18T00:36:24;98475.09;;;-7.41;97.80
72210;BME280;60113;48.762;12.302;2022-12-18T00:38:50;98476.84;;;-7.39;97.86
72210;BME280;60113;48.762;12.302;2022-12-18T00:41:17;98485.34;;;-7.39;97.74
72210;BME280;60113;48.762;12.302;2022-12-18T00:44:04;98494.72;;;-7.39;97.66
72210;BME280;60113;48.762;12.302;2022-12-18T00:46:30;98503.25;;;-7.37;97.30
72210;BME280;60113;48.762;12.302;2022-12-18T00:48:55;98498.13;;;-7.37;96.88
72210;BME280;60113;48.762;12.302;2022-12-18T00:51:21;98500.72;;;-7.36;96.54
72210;BME280;60113;48.762;12.302;2022-12-18T00:53:46;98506.69;;;-7.35;95.69
72210;BME280;60113;48.762;12.302;2022-12-18T00:56:12;98508.44;;;-7.33;95.86
72210;BME280;60113;48.762;12.302;2022-12-18T00:58:37;98515.25;;;-7.33;96.15
72210;BME280;60113;48.762;12.302;2022-12-18T01:01:06;98513.56;;;-7.31;96.79
72210;BME280;60113;48.762;12.302;2022-12-18T01:03:32;98514.44;;;-7.31;95.99
72210;BME280;60113;48.762;12.302;2022-12-18T01:05:58;98514.47;;;-7.29;96.03
72210;BME280;60113;48.762;12.302;2022-12-18T01:08:24;98517.00;;;-7.29;95.92
72210;BME280;60113;48.762;12.302;2022-12-18T01:10:50;98523.84;;;-7.28;95.91
72210;BME280;60113;48.762;12.302;2022-12-18T01:13:16;98517.84;;;-7.29;95.66
72210;BME280;60113;48.762;12.302;2022-12-18T01:15:48;98506.84;;;-7.26;95.79
72210;BME280;60113;48.762;12.302;2022-12-18T01:18:14;98502.56;;;-7.25;94.99
72210;BME280;60113;48.762;12.302;2022-12-18T01:20:39;98502.56;;;-7.25;95.52
72210;BME280;60113;48.762;12.302;2022-12-18T01:23:05;98500.03;;;-7.24;95.45
72210;BME280;60113;48.762;12.302;2022-12-18T01:25:30;98494.97;;;-7.22;95.42
72210;BME280;60113;48.762;12.302;2022-12-18T01:27:56;98503.50;;;-7.22;97.68
72210;BME280;60113;48.762;12.302;2022-12-18T01:30:22;98512.84;;;-7.22;98.20
72210;BME280;60113;48.762;12.302;2022-12-18T01:32:47;98514.56;;;-7.23;97.27
72210;BME280;60113;48.762;12.302;2022-12-18T01:35:13;98519.69;;;-7.21;96.83
72210;BME280;60113;48.762;12.302;2022-12-18T01:37:38;98520.53;;;-7.21;97.40
72210;BME280;60113;48.762;12.302;2022-12-18T01:40:04;98518.00;;;-7.19;97.56
72210;BME280;60113;48.762;12.302;2022-12-18T01:42:30;98518.06;;;-7.16;98.70
72210;BME280;60113;48.762;12.302;2022-12-18T01:49:53;98505.31;;;-7.13;98.62
72210;BME280;60113;48.762;12.302;2022-12-18T01:52:20;98518.16;;;-7.10;98.45
72210;BME280;60113;48.762;12.302;2022-12-18T01:54:47;98515.59;;;-7.10;98.33
72210;BME280;60113;48.762;12.302;2022-12-18T01:57:14;98521.63;;;-7.06;97.80
72210;BME280;60113;48.762;12.302;2022-12-18T01:59:41;98521.66;;;-7.05;97.22
72210;BME280;60113;48.762;12.302;2022-12-18T02:02:08;98525.91;;;-7.04;97.08
72210;BME280;60113;48.762;12.302;2022-12-18T02:04:33;98539.59;;;-7.01;96.77
72210;BME280;60113;48.762;12.302;2022-12-18T02:07:05;98532.78;;;-7.01;97.56
72210;BME280;60113;48.762;12.302;2022-12-18T02:12:34;98532.84;;;-6.98;97.53
72210;BME280;60113;48.762;12.302;2022-12-18T02:18:20;98533.69;;;-6.96;96.76
72210;BME280;60113;48.762;12.302;2022-12-18T02:23:41;98530.31;;;-6.95;97.69
72210;BME280;60113;48.762;12.302;2022-12-18T02:26:26;98521.81;;;-6.94;96.98
72210;BME280;60113;48.762;12.302;2022-12-18T02:29:13;98520.13;;;-6.93;97.13
72210;BME280;60113;48.762;12.302;2022-12-18T02:31:45;98520.16;;;-6.92;97.52
72210;BME280;60113;48.762;12.302;2022-12-18T02:34:13;98524.38;;;-6.92;97.13
72210;BME280;60113;48.762;12.302;2022-12-18T02:36:41;98523.53;;;-6.91;98.80
72210;BME280;60113;48.762;12.302;2022-12-18T02:39:10;98526.97;;;-6.91;98.52
72210;BME280;60113;48.762;12.302;2022-12-18T02:41:37;98532.94;;;-6.90;98.91
72210;BME280;60113;48.762;12.302;2022-12-18T02:44:08;98541.47;;;-6.90;98.50
72210;BME280;60113;48.762;12.302;2022-12-18T02:46:37;98537.22;;;-6.89;99.23
72210;BME280;60113;48.762;12.302;2022-12-18T02:49:08;98535.50;;;-6.90;98.82
72210;BME280;60113;48.762;12.302;2022-12-18T02:51:48;98544.91;;;-6.87;98.62
72210;BME280;60113;48.762;12.302;2022-12-18T02:54:24;98544.03;;;-6.88;98.52
72210;BME280;60113;48.762;12.302;2022-12-18T02:56:54;98544.06;;;-6.86;98.16
72210;BME280;60113;48.762;12.302;2022-12-18T02:59:30;98536.38;;;-6.86;97.79
72210;BME280;60113;48.762;12.302;2022-12-18T03:02:06;98536.41;;;-6.85;97.19
72210;BME280;60113;48.762;12.302;2022-12-18T03:04:40;98540.72;;;-6.84;97.09
72210;BME280;60113;48.762;12.302;2022-12-18T03:07:21;98548.41;;;-6.82;96.76
72210;BME280;60113;48.762;12.302;2022-12-18T03:09:50;98556.88;;;-6.83;96.65
72210;BME280;60113;48.762;12.302;2022-12-18T03:12:52;98550.97;;;-6.82;96.45
72210;BME280;60113;48.762;12.302;2022-12-18T03:15:19;98547.56;;;-6.81;96.44
72210;BME280;60113;48.762;12.302;2022-12-18T03:17:51;98549.25;;;-6.80;97.15
72210;BME280;60113;48.762;12.302;2022-12-18T03:20:19;98551.81;;;-6.80;96.66
72210;BME280;60113;48.762;12.302;2022-12-18T03:22:51;98551.81;;;-6.80;96.96
72210;BME280;60113;48.762;12.302;2022-12-18T03:25:19;98543.31;;;-6.81;96.37
72210;BME280;60113;48.762;12.302;2022-12-18T03:27:51;98538.19;;;-6.81;96.16
72210;BME280;60113;48.762;12.302;2022-12-18T03:30:19;98538.19;;;-6.81;96.50
72210;BME280;60113;48.762;12.302;2022-12-18T03:32:56;98533.91;;;-6.82;96.25
72210;BME280;60113;48.762;12.302;2022-12-18T03:35:38;98533.09;;;-6.81;96.06
72210;BME280;60113;48.762;12.302;2022-12-18T03:38:04;98536.47;;;-6.82;96.18
72210;BME280;60113;48.762;12.302;2022-12-18T03:40:38;98538.19;;;-6.82;95.89
72210;BME280;60113;48.762;12.302;2022-12-18T03:43:11;98539.88;;;-6.81;96.09
72210;BME280;60113;48.762;12.302;2022-12-18T03:45:48;98544.13;;;-6.82;96.21
72210;BME280;60113;48.762;12.302;2022-12-18T03:48:32;98528.78;;;-6.82;96.53
72210;BME280;60113;48.762;12.302;2022-12-18T03:51:10;98522.84;;;-6.82;96.53
72210;BME280;60113;48.762;12.302;2022-12-18T03:53:55;98526.28;;;-6.79;98.26
72210;BME280;60113;48.762;12.302;2022-12-18T03:56:25;98528.00;;;-6.79;98.44
72210;BME280;60113;48.762;12.302;2022-12-18T03:58:52;98533.94;;;-6.79;98.34
72210;BME280;60113;48.762;12.302;2022-12-18T04:01:23;98521.13;;;-6.80;98.22
72210;BME280;60113;48.762;12.302;2022-12-18T04:03:50;98522.00;;;-6.81;97.58
72210;BME280;60113;48.762;12.302;2022-12-18T04:06:16;98515.19;;;-6.81;96.98
72210;BME280;60113;48.762;12.302;2022-12-18T04:08:43;98523.69;;;-6.80;97.54
72210;BME280;60113;48.762;12.302;2022-12-18T04:11:09;98527.09;;;-6.81;97.75
72210;BME280;60113;48.762;12.302;2022-12-18T04:13:36;98527.06;;;-6.83;97.85
72210;BME280;60113;48.762;12.302;2022-12-18T04:16:04;98529.59;;;-6.86;97.91
72210;BME280;60113;48.762;12.302;2022-12-18T04:18:30;98540.66;;;-6.87;97.68
72210;BME280;60113;48.762;12.302;2022-12-18T04:20:55;98548.31;;;-6.88;97.94
72210;BME280;60113;48.762;12.302;2022-12-18T04:23:21;98556.75;;;-6.93;97.81
72210;BME280;60113;48.762;12.302;2022-12-18T04:25:47;98566.09;;;-6.96;97.56
72210;BME280;60113;48.762;12.302;2022-12-18T04:28:12;98556.66;;;-6.99;97.33
72210;BME280;60113;48.762;12.302;2022-12-18T04:30:38;98554.91;;;-7.01;98.04
72210;BME280;60113;48.762;12.302;2022-12-18T04:33:03;98551.50;;;-7.02;97.69
72210;BME280;60113;48.762;12.302;2022-12-18T04:35:29;98565.13;;;-7.01;98.14
72210;BME280;60113;48.762;12.302;2022-12-18T04:37:54;98556.63;;;-7.00;97.41
72210;BME280;60113;48.762;12.302;2022-12-18T04:40:19;98554.03;;;-7.04;97.39
72210;BME280;60113;48.762;12.302;2022-12-18T04:42:45;98556.56;;;-7.05;97.44
72210;BME280;60113;48.762;12.302;2022-12-18T04:45:10;98562.53;;;-7.05;97.89
72210;BME280;60113;48.762;12.302;2022-12-18T04:47:36;98562.47;;;-7.08;97.84
72210;BME280;60113;48.762;12.302;2022-12-18T04:50:01;98574.38;;;-7.10;98.03
72210;BME280;60113;48.762;12.302;2022-12-18T04:52:26;98589.69;;;-7.10;97.78
72210;BME280;60113;48.762;12.302;2022-12-18T04:54:52;98580.31;;;-7.11;97.39
72210;BME280;60113;48.762;12.302;2022-12-18T04:57:18;98577.72;;;-7.14;97.66
72210;BME280;60113;48.762;12.302;2022-12-18T04:59:44;98582.81;;;-7.16;97.52
72210;BME280;60113;48.762;12.302;2022-12-18T05:02:09;98602.38;;;-7.16;97.45
72210;BME280;60113;48.762;12.302;2022-12-18T05:04:35;98591.28;;;-7.18;97.81
72210;BME280;60113;48.762;12.302;2022-12-18T05:07:00;98596.34;;;-7.21;97.20
72210;BME280;60113;48.762;12.302;2022-12-18T05:09:25;98608.25;;;-7.22;97.41
72210;BME280;60113;48.762;12.302;2022-12-18T05:11:51;98600.56;;;-7.23;97.71
72210;BME280;60113;48.762;12.302;2022-12-18T05:14:16;98593.72;;;-7.26;97.68
72210;BME280;60113;48.762;12.302;2022-12-18T05:16:42;98597.06;;;-7.27;98.24
72210;BME280;60113;48.762;12.302;2022-12-18T05:19:07;98605.59;;;-7.28;97.90
72210;BME280;60113;48.762;12.302;2022-12-18T05:21:32;98607.25;;;-7.29;97.99
72210;BME280;60113;48.762;12.302;2022-12-18T05:23:58;98611.56;;;-7.28;98.65
72210;BME280;60113;48.762;12.302;2022-12-18T05:26:23;98608.13;;;-7.28;97.87
72210;BME280;60113;48.762;12.302;2022-12-18T05:28:49;98615.81;;;-7.26;97.99
72210;BME280;60113;48.762;12.302;2022-12-18T05:31:15;98631.13;;;-7.28;98.11
72210;BME280;60113;48.762;12.302;2022-12-18T05:33:40;98620.91;;;-7.28;97.71
72210;BME280;60113;48.762;12.302;2022-12-18T05:36:08;98609.00;;;-7.28;98.24
72210;BME280;60113;48.762;12.302;2022-12-18T05:38:35;98604.72;;;-7.29;98.84
72210;BME280;60113;48.762;12.302;2022-12-18T05:41:02;98608.13;;;-7.28;99.12
72210;BME280;60113;48.762;12.302;2022-12-18T05:43:29;98608.97;;;-7.29;99.14
72210;BME280;60113;48.762;12.302;2022-12-18T05:45:55;98602.16;;;-7.29;98.57
72210;BME280;60113;48.762;12.302;2022-12-18T05:48:22;98608.13;;;-7.28;98.63
72210;BME280;60113;48.762;12.302;2022-12-18T05:50:48;98604.75;;;-7.25;98.34
72210;BME280;60113;48.762;12.302;2022-12-18T05:53:16;98605.66;;;-7.23;97.67
72210;BME280;60113;48.762;12.302;2022-12-18T05:55:42;98608.22;;;-7.23;97.65
72210;BME280;60113;48.762;12.302;2022-12-18T05:58:10;98612.50;;;-7.21;97.90
72210;BME280;60113;48.762;12.302;2022-12-18T06:00:38;98614.22;;;-7.21;98.03
72210;BME280;60113;48.762;12.302;2022-12-18T06:03:10;98604.84;;;-7.21;98.28
72210;BME280;60113;48.762;12.302;2022-12-18T06:05:44;98608.28;;;-7.20;99.00
72210;BME280;60113;48.762;12.302;2022-12-18T06:08:10;98613.38;;;-7.20;98.66
72210;BME280;60113;48.762;12.302;2022-12-18T06:10:36;98616.81;;;-7.20;98.22
72210;BME280;60113;48.762;12.302;2022-12-18T06:13:02;98626.16;;;-7.20;98.08
72210;BME280;60113;48.762;12.302;2022-12-18T06:15:28;98635.53;;;-7.19;98.15
72210;BME280;60113;48.762;12.302;2022-12-18T06:17:54;98633.00;;;-7.18;98.02
72210;BME280;60113;48.762;12.302;2022-12-18T06:20:20;98637.31;;;-7.15;97.68
72210;BME280;60113;48.762;12.302;2022-12-18T06:22:46;98628.81;;;-7.14;97.87
72210;BME280;60113;48.762;12.302;2022-12-18T06:25:11;98630.53;;;-7.13;97.90
72210;BME280;60113;48.762;12.302;2022-12-18T06:27:37;98626.28;;;-7.12;98.03
72210;BME280;60113;48.762;12.302;2022-12-18T06:30:04;98636.50;;;-7.12;98.15
72210;BME280;60113;48.762;12.302;2022-12-18T06:32:30;98633.97;;;-7.11;98.08
72210;BME280;60113;48.762;12.302;2022-12-18T06:34:55;98632.31;;;-7.10;97.83
72210;BME280;60113;48.762;12.302;2022-12-18T06:37:21;98631.44;;;-7.09;97.79
72210;BME280;60113;48.762;12.302;2022-12-18T06:39:50;98632.34;;;-7.07;98.28
72210;BME280;60113;48.762;12.302;2022-12-18T06:42:15;98631.50;;;-7.06;98.28
72210;BME280;60113;48.762;12.302;2022-12-18T06:44:40;98641.75;;;-7.05;97.50
72210;BME280;60113;48.762;12.302;2022-12-18T06:47:06;98642.66;;;-7.03;97.48
72210;BME280;60113;48.762;12.302;2022-12-18T06:49:31;98635.81;;;-7.02;97.52
72210;BME280;60113;48.762;12.302;2022-12-18T06:51:57;98635.81;;;-7.02;97.44
72210;BME280;60113;48.762;12.302;2022-12-18T06:54:22;98647.78;;;-7.01;97.80
72210;BME280;60113;48.762;12.302;2022-12-18T06:56:48;98642.69;;;-7.01;98.39
72210;BME280;60113;48.762;12.302;2022-12-18T06:59:13;98652.94;;;-6.99;97.99
72210;BME280;60113;48.762;12.302;2022-12-18T07:01:39;98647.81;;;-6.99;97.59
72210;BME280;60113;48.762;12.302;2022-12-18T07:04:05;98649.53;;;-6.98;97.41
72210;BME280;60113;48.762;12.302;2022-12-18T07:06:30;98650.41;;;-6.98;97.38
72210;BME280;60113;48.762;12.302;2022-12-18T07:08:56;98655.50;;;-6.98;97.45
72210;BME280;60113;48.762;12.302;2022-12-18T07:11:21;98656.31;;;-6.99;97.39
72210;BME280;60113;48.762;12.302;2022-12-18T07:13:47;98657.19;;;-6.98;97.91
72210;BME280;60113;48.762;12.302;2022-12-18T07:16:20;98652.97;;;-6.96;98.02
72210;BME280;60113;48.762;12.302;2022-12-18T07:18:46;98661.50;;;-6.96;97.96
72210;BME280;60113;48.762;12.302;2022-12-18T07:21:14;98668.34;;;-6.95;98.10
72210;BME280;60113;48.762;12.302;2022-12-18T07:23:40;98680.25;;;-6.95;98.29
72210;BME280;60113;48.762;12.302;2022-12-18T07:26:09;98674.28;;;-6.96;98.01
72210;BME280;60113;48.762;12.302;2022-12-18T07:28:36;98677.66;;;-6.97;98.29
72210;BME280;60113;48.762;12.302;2022-12-18T07:31:04;98678.56;;;-6.95;98.19
72210;BME280;60113;48.762;12.302;2022-12-18T07:33:29;98684.56;;;-6.93;97.73
72210;BME280;60113;48.762;12.302;2022-12-18T07:35:55;98682.88;;;-6.91;97.33
72210;BME280;60113;48.762;12.302;2022-12-18T07:38:21;98694.03;;;-6.87;97.48
72210;BME280;60113;48.762;12.302;2022-12-18T07:40:47;98694.13;;;-6.82;97.43
72210;BME280;60113;48.762;12.302;2022-12-18T07:43:12;98686.56;;;-6.76;97.12
72210;BME280;60113;48.762;12.302;2022-12-18T07:45:37;98679.78;;;-6.72;96.75
72210;BME280;60113;48.762;12.302;2022-12-18T07:48:03;98673.94;;;-6.67;96.77
72210;BME280;60113;48.762;12.302;2022-12-18T07:50:29;98663.75;;;-6.62;97.03
72210;BME280;60113;48.762;12.302;2022-12-18T07:52:55;98665.53;;;-6.58;96.56
72210;BME280;60113;48.762;12.302;2022-12-18T07:55:20;98666.41;;;-6.56;96.36
72210;BME280;60113;48.762;12.302;2022-12-18T07:57:45;98672.44;;;-6.52;96.05
72210;BME280;60113;48.762;12.302;2022-12-18T08:00:11;98666.53;;;-6.46;96.07
72210;BME280;60113;48.762;12.302;2022-12-18T08:02:37;98661.50;;;-6.42;95.83
72210;BME280;60113;48.762;12.302;2022-12-18T08:05:03;98671.78;;;-6.37;95.96
72210;BME280;60113;48.762;12.302;2022-12-18T08:07:28;98676.16;;;-6.33;95.58
72210;BME280;60113;48.762;12.302;2022-12-18T08:09:54;98685.59;;;-6.27;95.21
72210;BME280;60113;48.762;12.302;2022-12-18T08:12:19;98678.84;;;-6.23;95.34
72210;BME280;60113;48.762;12.302;2022-12-18T08:14:45;98675.53;;;-6.16;95.21
72210;BME280;60113;48.762;12.302;2022-12-18T08:17:10;98672.16;;;-6.12;95.07
72210;BME280;60113;48.762;12.302;2022-12-18T08:19:36;98676.47;;;-6.11;95.07
72210;BME280;60113;48.762;12.302;2022-12-18T08:22:01;98673.91;;;-6.09;94.67
72210;BME280;60113;48.762;12.302;2022-12-18T08:24:26;98687.63;;;-6.04;94.52
72210;BME280;60113;48.762;12.302;2022-12-18T08:26:52;98680.91;;;-5.96;94.64
72210;BME280;60113;48.762;12.302;2022-12-18T08:29:18;98685.19;;;-5.92;94.30
72210;BME280;60113;48.762;12.302;2022-12-18T08:31:43;98694.63;;;-5.87;94.15
72210;BME280;60113;48.762;12.302;2022-12-18T08:34:09;98697.25;;;-5.84;93.80
72210;BME280;60113;48.762;12.302;2022-12-18T08:36:34;98697.25;;;-5.84;93.47
72210;BME280;60113;48.762;12.302;2022-12-18T08:39:00;98700.75;;;-5.78;93.69
72210;BME280;60113;48.762;12.302;2022-12-18T08:41:25;98699.91;;;-5.75;93.75
72210;BME280;60113;48.762;12.302;2022-12-18T08:43:51;98705.06;;;-5.73;93.37
72210;BME280;60113;48.762;12.302;2022-12-18T08:46:37;98708.56;;;-5.67;93.47
72210;BME280;60113;48.762;12.302;2022-12-18T08:49:04;98715.50;;;-5.59;93.47
72210;BME280;60113;48.762;12.302;2022-12-18T08:51:30;98716.47;;;-5.51;93.74
72210;BME280;60113;48.762;12.302;2022-12-18T08:53:56;98723.38;;;-5.44;93.38
72210;BME280;60113;48.762;12.302;2022-12-18T08:56:22;98725.13;;;-5.41;92.98
72210;BME280;60113;48.762;12.302;2022-12-18T08:58:51;98726.03;;;-5.36;93.01
72210;BME280;60113;48.762;12.302;2022-12-18T09:01:17;98726.94;;;-5.31;92.56
72210;BME280;60113;48.762;12.302;2022-12-18T09:03:42;98728.72;;;-5.23;93.09
72210;BME280;60113;48.762;12.302;2022-12-18T09:06:08;98729.66;;;-5.18;92.64
72210;BME280;60113;48.762;12.302;2022-12-18T09:08:35;98724.50;;;-5.20;92.10
72210;BME280;60113;48.762;12.302;2022-12-18T09:11:02;98729.69;;;-5.15;92.26
72210;BME280;60113;48.762;12.302;2022-12-18T09:13:28;98730.56;;;-5.11;92.43
72210;BME280;60113;48.762;12.302;2022-12-18T09:15:54;98741.75;;;-5.06;92.18
72210;BME280;60113;48.762;12.302;2022-12-18T09:18:23;98741.78;;;-5.03;91.78
72210;BME280;60113;48.762;12.302;2022-12-18T09:20:49;98730.72;;;-4.97;91.92
72210;BME280;60113;48.762;12.302;2022-12-18T09:23:16;98729.09;;;-4.91;91.63
72210;BME280;60113;48.762;12.302;2022-12-18T09:25:42;98724.78;;;-4.96;91.00
72210;BME280;60113;48.762;12.302;2022-12-18T09:28:13;98723.91;;;-4.97;91.46
72210;BME280;60113;48.762;12.302;2022-12-18T09:30:40;98714.53;;;-4.95;91.61
72210;BME280;60113;48.762;12.302;2022-12-18T09:33:06;98709.47;;;-4.87;92.20
72210;BME280;60113;48.762;12.302;2022-12-18T09:35:32;98706.97;;;-4.79;92.05
72210;BME280;60113;48.762;12.302;2022-12-18T09:37:57;98704.50;;;-4.71;92.29
72210;BME280;60113;48.762;12.302;2022-12-18T09:40:25;98708.78;;;-4.67;91.44
72210;BME280;60113;48.762;12.302;2022-12-18T09:42:58;98704.53;;;-4.62;91.11
72210;BME280;60113;48.762;12.302;2022-12-18T09:45:25;98701.16;;;-4.61;91.34
72210;BME280;60113;48.762;12.302;2022-12-18T09:47:52;98701.97;;;-4.64;89.65
72210;BME280;60113;48.762;12.302;2022-12-18T09:50:32;98710.56;;;-4.60;90.31
72210;BME280;60113;48.762;12.302;2022-12-18T09:53:04;98708.88;;;-4.59;89.56
72210;BME280;60113;48.762;12.302;2022-12-18T09:55:37;98690.91;;;-4.59;88.96
72210;BME280;60113;48.762;12.302;2022-12-18T09:58:18;98690.91;;;-4.59;88.83
72210;BME280;60113;48.762;12.302;2022-12-18T10:00:45;98690.94;;;-4.55;89.66
72210;BME280;60113;48.762;12.302;2022-12-18T10:03:13;98694.47;;;-4.39;90.57
72210;BME280;60113;48.762;12.302;2022-12-18T10:06:10;98686.03;;;-4.23;89.78
72210;BME280;60113;48.762;12.302;2022-12-18T10:11:38;98680.19;;;-4.00;89.03
72210;BME280;60113;48.762;12.302;2022-12-18T10:14:14;98683.69;;;-3.86;89.81
72210;BME280;60113;48.762;12.302;2022-12-18T10:19:40;98691.44;;;-3.75;87.60
72210;BME280;60113;48.762;12.302;2022-12-18T10:25:14;98666.69;;;-3.56;87.67
72210;BME280;60113;48.762;12.302;2022-12-18T10:27:41;98671.88;;;-3.46;87.61
72210;BME280;60113;48.762;12.302;2022-12-18T10:30:15;98666.75;;;-3.42;88.18
72210;BME280;60113;48.762;12.302;2022-12-18T10:32:41;98667.59;;;-3.49;87.03
72210;BME280;60113;48.762;12.302;2022-12-18T10:35:26;98666.44;;;-4.09;83.01
72210;BME280;60113;48.762;12.302;2022-12-18T10:40:29;98675.53;;;-4.55;85.02
72210;BME280;60113;48.762;12.302;2022-12-18T10:43:12;98668.63;;;-4.67;86.06
72210;BME280;60113;48.762;12.302;2022-12-18T10:45:38;98671.16;;;-4.65;87.36
72210;BME280;60113;48.762;12.302;2022-12-18T10:48:17;98671.25;;;-4.53;88.60
72210;BME280;60113;48.762;12.302;2022-12-18T10:50:46;98668.00;;;-4.36;89.21
72210;BME280;60113;48.762;12.302;2022-12-18T10:53:19;98673.25;;;-4.19;89.11
72210;BME280;60113;48.762;12.302;2022-12-18T10:55:45;98659.63;;;-4.02;88.98
72210;BME280;60113;48.762;12.302;2022-12-18T10:58:28;98657.97;;;-3.91;88.73
72210;BME280;60113;48.762;12.302;2022-12-18T11:01:16;98652.03;;;-3.82;87.15
72210;BME280;60113;48.762;12.302;2022-12-18T11:03:45;98641.75;;;-3.82;86.14
72210;BME280;60113;48.762;12.302;2022-12-18T11:06:13;98634.91;;;-3.80;85.71
72210;BME280;60113;48.762;12.302;2022-12-18T11:08:41;98640.06;;;-3.73;86.67
72210;BME280;60113;48.762;12.302;2022-12-18T11:11:21;98639.25;;;-3.69;85.67
72210;BME280;60113;48.762;12.302;2022-12-18T11:16:21;98644.50;;;-3.38;87.14
72210;BME280;60113;48.762;12.302;2022-12-18T11:18:47;98646.19;;;-3.35;86.46
72210;BME280;60113;48.762;12.302;2022-12-18T11:21:13;98649.63;;;-3.27;86.35
72210;BME280;60113;48.762;12.302;2022-12-18T11:23:53;98658.22;;;-3.19;86.95
72210;BME280;60113;48.762;12.302;2022-12-18T11:26:20;98656.53;;;-3.20;86.30
72210;BME280;60113;48.762;12.302;2022-12-18T11:28:51;98659.03;;;-3.45;82.88
72210;BME280;60113;48.762;12.302;2022-12-18T11:31:27;98663.31;;;-3.39;85.08
72210;BME280;60113;48.762;12.302;2022-12-18T11:34:16;98667.63;;;-3.38;86.44
72210;BME280;60113;48.762;12.302;2022-12-18T11:36:46;98664.16;;;-3.45;85.48
72210;BME280;60113;48.762;12.302;2022-12-18T11:42:17;98647.88;;;-3.50;83.51
72210;BME280;60113;48.762;12.302;2022-12-18T11:44:54;98640.13;;;-3.55;82.38
72210;BME280;60113;48.762;12.302;2022-12-18T11:47:44;98641.88;;;-3.55;82.55
72210;BME280;60113;48.762;12.302;2022-12-18T11:50:17;98646.06;;;-3.78;81.13
72210;BME280;60113;48.762;12.302;2022-12-18T11:52:43;98649.47;;;-3.82;82.81
72210;BME280;60113;48.762;12.302;2022-12-18T12:00:57;98640.25;;;-3.11;85.74
72210;BME280;60113;48.762;12.302;2022-12-18T12:03:47;98626.56;;;-2.86;86.04
72210;BME280;60113;48.762;12.302;2022-12-18T12:12:32;98635.13;;;-2.87;80.07
72210;BME280;60113;48.762;12.302;2022-12-18T12:15:20;98643.72;;;-3.01;80.47
72210;BME280;60113;48.762;12.302;2022-12-18T12:26:48;98628.97;;;-3.69;81.26
72210;BME280;60113;48.762;12.302;2022-12-18T12:29:55;98626.34;;;-3.83;81.29
72210;BME280;60113;48.762;12.302;2022-12-18T12:40:19;98614.44;;;-3.58;85.60
72210;BME280;60113;48.762;12.302;2022-12-18T12:45:55;98605.06;;;-3.40;84.04
72210;BME280;60113;48.762;12.302;2022-12-18T12:48:50;98604.22;;;-3.22;84.18
72210;BME280;60113;48.762;12.302;2022-12-18T12:51:33;98597.41;;;-3.10;83.54
72210;BME280;60113;48.762;12.302;2022-12-18T12:54:01;98594.84;;;-3.01;84.99
72210;BME280;60113;48.762;12.302;2022-12-18T12:56:37;98596.53;;;-2.92;86.09
72210;BME280;60113;48.762;12.302;2022-12-18T13:02:06;98608.53;;;-3.01;80.93
72210;BME280;60113;48.762;12.302;2022-12-18T13:04:47;98607.69;;;-3.06;82.77
72210;BME280;60113;48.762;12.302;2022-12-18T13:07:45;98611.97;;;-3.08;82.78
72210;BME280;60113;48.762;12.302;2022-12-18T13:10:14;98614.53;;;-2.98;84.21
72210;BME280;60113;48.762;12.302;2022-12-18T13:15:39;98611.97;;;-2.73;84.25
72210;BME280;60113;48.762;12.302;2022-12-18T13:20:39;98603.38;;;-2.49;82.62
72210;BME280;60113;48.762;12.302;2022-12-18T13:31:12;98605.88;;;-2.13;82.09
72210;BME280;60113;48.762;12.302;2022-12-18T13:33:44;98596.44;;;-2.14;81.39
72210;BME280;60113;48.762;12.302;2022-12-18T13:38:39;98593.91;;;-2.31;81.68
72210;BME280;60113;48.762;12.302;2022-12-18T13:43:46;98597.34;;;-2.46;82.06
72210;BME280;60113;48.762;12.302;2022-12-18T13:51:58;98605.13;;;-2.96;81.99
72210;BME280;60113;48.762;12.302;2022-12-18T13:54:33;98611.06;;;-3.26;80.30
72210;BME280;60113;48.762;12.302;2022-12-18T13:57:01;98617.06;;;-3.34;83.88
72210;BME280;60113;48.762;12.302;2022-12-18T13:59:35;98608.47;;;-3.54;84.35
72210;BME280;60113;48.762;12.302;2022-12-18T14:02:12;98609.22;;;-3.75;82.96
72210;BME280;60113;48.762;12.302;2022-12-18T14:04:38;98611.75;;;-3.86;84.45
72210;BME280;60113;48.762;12.302;2022-12-18T14:07:06;98597.13;;;-4.03;85.09
72210;BME280;60113;48.762;12.302;2022-12-18T14:09:39;98602.19;;;-4.20;84.39
72210;BME280;60113;48.762;12.302;2022-12-18T14:12:06;98607.22;;;-4.35;85.18
72210;BME280;60113;48.762;12.302;2022-12-18T14:14:56;98597.69;;;-4.55;85.35
72210;BME280;60113;48.762;12.302;2022-12-18T14:17:22;98607.88;;;-4.66;85.62
72210;BME280;60113;48.762;12.302;2022-12-18T14:19:49;98603.53;;;-4.80;85.70
72210;BME280;60113;48.762;12.302;2022-12-18T14:22:21;98614.56;;;-4.90;85.90
72210;BME280;60113;48.762;12.302;2022-12-18T14:25:26;98616.13;;;-5.05;85.81
72210;BME280;60113;48.762;12.302;2022-12-18T14:30:32;98611.63;;;-5.31;86.19
72210;BME280;60113;48.762;12.302;2022-12-18T14:36:02;98592.47;;;-5.66;86.00
72210;BME280;60113;48.762;12.302;2022-12-18T14:38:37;98588.03;;;-5.82;86.28